• Join FlightAware (Why Join?)
  • Login
  • US Flag GB Flag 
11:51 EST


 

Airport Tracker/Info


-or-


 

Live Flight TrackerFlight Track Log ✈ N225SB ✈ 03-Mar-2014 ✈ MMCB / CVJ - KFTY

Flight Track Log - Related Links

Times and Time Zones

All times are in EST time to prevent confusion due to time zone crossing. See the N225SB flight status page for this flight to view local times or setup timezone preferences in your user account.

Time Position Orientation Groundspeed Altitude Reporting Facility
EST Latitude Longitude Course Direction KTS MPH feet Rate Location/Type
13:38 25.7683 -95.3669 45° Northeast 514 592 39,000  Level Houston Center
13:39 25.8811 -95.2447 44° Northeast 516 594 39,000  Level Houston Center
13:40 25.9819 -95.1319 45° Northeast 514 592 39,000  Level Houston Center
13:41 26.0833 -95.0186 45° Northeast 514 592 39,000  Level Houston Center
13:42 26.2056 -94.8847 44° Northeast 514 592 39,000  Level Houston Center
13:43 26.3058 -94.7714 45° Northeast 514 592 39,000  Level Houston Center
13:44 26.6557 -94.3617 45° Northeast  Level FlightAware Approximate
13:44 26.4083 -94.6558 45° Northeast 516 594 39,000  Level Houston Center
13:45 26.5208 -94.5294 45° Northeast 517 595 39,000  Level Houston Center
13:47 26.6225 -94.4153 45° Northeast 518 596 39,000  Level Houston Center
13:48 26.7228 -94.3017 45° Northeast 518 596 39,000  Level Houston Center
13:49 26.8242 -94.1875 45° Northeast 518 596 39,000  Level Houston Center
13:50 26.9261 -94.0722 45° Northeast 518 596 39,000  Level Houston Center
13:51 27.0467 -93.9333 46° Northeast 518 596 39,000  Level Houston Center
13:52 27.1481 -93.8183 45° Northeast 518 596 39,000  Level Houston Center
13:53 27.2494 -93.7028 45° Northeast 518 596 39,000  Level Houston Center
13:54 27.3508 -93.5861 46° Northeast 519 597 39,000  Level Houston Center
13:55 27.4528 -93.4689 46° Northeast 520 598 39,000  Level Houston Center
13:56 27.5544 -93.3514 46° Northeast 522 601 39,000  Level Houston Center
13:57 27.6667 -93.2217 46° Northeast 524 603 39,000  Level Houston Center
13:58 27.7675 -93.1039 46° Northeast 524 603 39,000  Level Houston Center
13:59 27.8886 -92.9636 46° Northeast 523 602 39,000  Level Houston Center
14:00 27.9900 -92.8431 46° Northeast 524 603 39,000  Level Houston Center
14:01 28.0914 -92.7258 46° Northeast 524 603 39,000  Level Houston Center
14:02 28.1917 -92.6064 46° Northeast 524 603 39,000  Level Houston Center
14:03 28.2928 -92.4869 46° Northeast 527 606 39,000  Level Houston Center
14:04 28.4150 -92.3439 46° Northeast 526 605 39,000  Level Houston Center
14:05 28.4958 -92.2467 47° Northeast 527 606 39,000  Level Houston Center
14:06 28.6169 -92.1025 46° Northeast 527 606 39,000  Level Houston Center
14:07 28.7264 -91.9722 46° Northeast 527 606 39,000  Level Houston Center
14:08 28.8164 -91.8639 47° Northeast 520 598 39,000  Level Houston Center
14:09 28.9342 -91.7228 46° Northeast 521 600 39,000  Level Houston Center
14:10 29.0344 -91.6014 47° Northeast 523 602 39,000  Level Houston Center
14:11 29.1347 -91.4797 47° Northeast 523 602 39,000  Level Houston Center
14:12 29.2350 -91.3581 47° Northeast 524 603 39,000  Level Houston Center
14:13 29.3347 -91.2353 47° Northeast 524 603 39,000  Level Houston Center
14:14 29.4556 -91.0886 47° Northeast 524 603 39,000  Level Houston Center
14:16 29.5533 -90.9667 47° Northeast 524 603 39,000  Level Houston Center
14:17 29.6533 -90.8453 47° Northeast 524 603 39,000  Level Houston Center
14:18 29.7431 -90.7092 53° Northeast 526 605 39,000  Level Houston Center
14:19 29.8289 -90.5764 53° Northeast 526 605 39,000  Level Houston Center
14:20 29.9153 -90.4411 54° Northeast 526 605 39,000  Level Houston Center
14:21 30.0192 -90.2786 54° Northeast 526 605 39,000  Level Houston Center
14:22 30.1086 -90.1397 53° Northeast 526 605 39,000  Level Houston Center
14:23 30.1922 -90.0069 54° Northeast 524 603 39,000  Level Houston Center
14:24 30.2728 -89.8767 54° Northeast 524 603 39,000  Level Houston Center
14:25 30.3669 -89.7281 54° Northeast 528 608 39,000  Level Houston Center
14:26 30.4622 -89.5789 53° Northeast 529 609 39,000  Level Houston Center
14:27 30.5481 -89.4408 54° Northeast 529 609 39,000  Level Houston Center
14:28 30.6350 -89.3017 54° Northeast 530 610 39,000  Level Houston Center
14:29 30.7367 -89.1336 55° Northeast 532 612 39,000  Level Houston Center
14:30 30.8244 -88.9947 54° Northeast 532 612 39,000  Level Houston Center
14:31 30.9031 -88.8653 55° Northeast 532 612 39,000  Level Houston Center
14:32 30.9883 -88.7253 55° Northeast 532 612 39,000  Level Houston Center
14:33 31.0814 -88.5761 54° Northeast 532 612 39,000  Level Houston Center
14:34 31.1667 -88.4353 55° Northeast 531 611 39,000  Level Houston Center
14:35 31.2669 -88.2703 55° Northeast 531 611 39,000  Level Houston Center
14:36 31.3597 -88.1150 55° Northeast 531 611 39,000  Level Houston Center
14:37 31.4372 -87.9867 55° Northeast 531 611 39,000  Level Houston Center
14:38 31.5308 -87.8564 50° Northeast 529 609 39,000  Level Houston Center
14:39 31.6408 -87.7519 39° Northeast 513 590 39,000 -480 Level Houston Center
14:40 31.7328 -87.6769 35° Northeast 504 580 38,200 -1,560 Descending Atlanta Center
14:41 31.8442 -87.5739 38° Northeast 504 580 36,400 -1,800 Descending Atlanta Center
14:42 31.9397 -87.4431 49° Northeast 509 586 34,600 -1,800 Descending Atlanta Center
14:43 32.0106 -87.2914 61° Northeast 523 602 32,900 -1,800 Descending Atlanta Center
14:44 32.0917 -87.1450 57° Northeast 523 602 31,100 -1,860 Descending Atlanta Center
14:45 32.1786 -87.0031 54° Northeast 523 602 29,200 -1,860 Descending Atlanta Center
14:46 32.2631 -86.8658 54° Northeast 523 602 27,400 -1,860 Descending Atlanta Center
14:47 32.3456 -86.7261 55° Northeast 523 602 25,500 -1,740 Descending Atlanta Center
14:48 32.4428 -86.5789 52° Northeast 523 602 24,000 -780 Descending Atlanta Center
14:49 32.5142 -86.4453 58° Northeast 518 596 24,000  Level Atlanta Center
14:50 32.6003 -86.3047 54° Northeast 525 604 24,000  Level Atlanta Center
14:51 32.6844 -86.1589 56° Northeast 532 612 24,000 -780 Level Atlanta Center
14:52 32.7681 -86.0150 55° Northeast 532 612 22,500 -1,800 Descending Atlanta Center
14:53 32.8583 -85.8614 55° Northeast 526 605 20,500 -1,800 Descending Atlanta Center
14:54 32.9372 -85.7269 55° Northeast 514 592 18,900 -1,800 Descending Atlanta Center
14:55 33.0100 -85.5994 56° Northeast 486 559 17,000 -1,920 Descending Atlanta Center
14:57 33.1483 -85.3761 53° Northeast 412 474 13,200 -1,560 Descending Atlanta Center
14:59 33.2714 -85.1594 56° Northeast 390 449 10,900 -780 Descending Atlanta Center
15:00 33.3511 -85.1231 21° North 310 357 10,900 -300 Level Atlanta Center
15:01 33.4286 -85.0992 14° North 291 335 10,300 -960 Descending Atlanta Center
15:02 33.5042 -85.0528 27° Northeast 291 335 9,000 -1,740 Descending Atlanta Center
15:04 33.6167 -84.9167 45° Northeast 312 359 5,300 -1,860 Descending Atlanta TRACON
15:05 33.6667 -84.8500 48° Northeast 263 303 3,800 -1,200 Descending Atlanta TRACON
15:06 33.7167 -84.8000 40° Northeast 218 251 2,900 -420 Descending Atlanta TRACON
15:07 33.7500 -84.7333 59° Northeast 209 241 3,000  Climbing Atlanta TRACON
15:08 33.7500 -84.6833 90° East 189 217 2,900 -360 Descending Atlanta TRACON
15:09 33.7667 -84.6333 68° East 208 239 2,400 -660 Descending Atlanta TRACON
15:10 33.7667 -84.5667 90° East 168 193 1,600 -480 Descending Atlanta TRACON
15:11 33.8000 -84.5167 51° Northeast 166 191 1,500  Descending Atlanta TRACON
15:12 33.8000 -84.4833 90° East 185 213 1,600 60 Climbing Atlanta TRACON
15:14 33.7667 -84.5167 90° East  Level FlightAware Approximate
15:21 33.7791 -84.5214 90° East  Level Estimated